header
chart

Reported and forecast weather at local airports

Important: not to be used for flight planning purposes.


EGBB METAR fetched   Tuesday 27th Jul @ 07:34:10
EGBB 270620Z VRB02KT CAVOK 16/14 Q1008

EGCC METAR fetched   Tuesday 27th Jul @ 07:34:02
EGCC 270620Z AUTO VRB01KT 4800 BR SCT007 15/14 Q1008 BECMG 9999

EGGP METAR fetched   Tuesday 27th Jul @ 07:34:04
EGGP 270620Z VRB01KT 5000 HZ FEW006 SCT015 17/15 Q1007

EGNH METAR fetched   Tuesday 27th Jul @ 07:34:06
EGNH 270620Z VRB03KT 9999 BKN012 18/15 Q1007

EGNM METAR fetched   Tuesday 27th Jul @ 07:34:08
EGNM 270620Z 26009KT 9999 FEW012 14/13 Q1007

EGOV METAR fetched   Tuesday 27th Jul @ 07:34:12
EGOV 270620Z 22002KT 9999 FEW021 OVC120 16/15 Q1008 NOSIG RMK BLU BLU


EGBB TAF fetched   Tuesday 27th Jul @ 07:34:11
TAF EGBB 270455Z 2706/2806 31008KT 9999 SCT040 PROB30 TEMPO 2706/2712 7000 SHRA TEMPO 2712/2803 7000 SHRA PROB30 TEMPO 2712/2803 VRB15G25KT 4000 +SHRAGS BECMG 2715/2718 18010KT

EGCC TAF fetched   Tuesday 27th Jul @ 07:34:03
TAF EGCC 270455Z 2706/2812 27003KT 4000 BR BKN004 BECMG 2706/2709 9999 NSW FEW025 TEMPO 2711/2812 6000 SHRA PROB30 TEMPO 2712/2812 3000 +SHRAGS BKN008 BKN025CB

EGGP TAF fetched   Tuesday 27th Jul @ 07:34:05
TAF EGGP 270455Z 2706/2806 20005KT 9999 FEW045 TEMPO 2706/2708 6000 BKN006 PROB30 2706/2707 4000 BR BKN004 TEMPO 2710/2806 6000 SHRA PROB30 TEMPO 2711/2806 3000 +SHRAGS BKN008 BKN025CB

EGNM TAF fetched   Tuesday 27th Jul @ 07:34:09
TAF TAF EGNM 270456Z 2706/2806 28009KT 9999 FEW045 TEMPO 2706/2708 8000 TEMPO 2709/2806 6000 SHRA PROB30 TEMPO 2711/2806 3000 +SHRAGS BKN008 BKN025CB

EGOV TAF fetched   Tuesday 27th Jul @ 07:34:13
TAF TAF EGOV 190525Z 1906/1918 04008KT CAVOK PROB30 TEMPO 1906/1912 6000 SHRA TEMPO 1912/1915 4000 +SHRA SCT020 BKN030CB PROB30 TEMPO 1913/1915 VRBG20G30KT 2500 TSGR BKN012

Every effort is made to ensure that this information is free from errors but as it is provided by a third party the accuracy of the reports cannot be guaranteed.